Flight Track Log - Related Links

Times and Time Zones

All times are in EDT time to prevent confusion due to time zone crossing. See the SWA1910 flight status page for this flight to view local times or setup timezone preferences in your user account.

Time Position Orientation Groundspeed Altitude Reporting Facility
EDT Latitude Longitude Course Direction KTS MPH feet Rate Location/Type
Thu 02:04:20 PM 26.0581 -80.1386 88° East 149 171 1,200  Level Miami Center
Thu 02:04:50 PM 26.0589 -80.1108 88° East 183 211 1,800 2,286 Climbing Miami Center
Thu 02:05:44 PM 26.0747 -80.0533 73° East 237 273 4,400 1,684 Climbing Miami Center
Thu 02:06:44 PM 26.0972 -79.9778 72° East 247 284 5,000 1,450 Climbing Miami Center
Thu 02:07:44 PM 26.1364 -79.9022 60° Northeast 261 300 7,300 2,800 Climbing Miami Center
Thu 02:08:44 PM 26.1778 -79.8222 60° Northeast 279 321 10,600 2,850 Climbing Miami Center
Thu 02:09:44 PM 26.2256 -79.7333 59° Northeast 309 356 13,000 2,500 Climbing Miami Center
Thu 02:10:44 PM 26.2711 -79.6417 61° Northeast 346 398 15,600 2,900 Climbing Miami Center
Thu 02:11:44 PM 26.3397 -79.5389 53° Northeast 376 433 18,800 2,850 Climbing Miami Center
Thu 02:12:44 PM 26.4183 -79.4711 38° Northeast 387 445 21,300 2,400 Climbing Miami Center
Thu 02:13:44 PM 26.5344 -79.4111 25° Northeast 402 463 23,600 2,050 Climbing Miami Center
Thu 02:14:44 PM 26.6314 -79.3597 25° Northeast 421 484 25,400 2,150 Climbing Miami Center
Thu 02:15:44 PM 26.7536 -79.2972 25° Northeast 431 496 27,900 2,400 Climbing Miami Center
Thu 02:16:44 PM 26.8631 -79.2389 25° Northeast 431 496 30,200 1,550 Climbing Miami Center
Thu 02:17:44 PM 26.9683 -79.1828 25° Northeast 421 484 31,000 400 Climbing Miami Center
Thu 02:18:44 PM 27.0739 -79.1242 26° Northeast 421 484 31,000 824 Level Miami Center
Thu 02:19:55 PM 27.1789 -79.0725 24° Northeast 416 479 32,800 909 Climbing Miami Center
Thu 02:20:56 PM 27.2969 -79.0094 25° Northeast 416 479 33,000 99 Climbing Miami Center
Thu 02:21:56 PM 27.4169 -78.9508 23° Northeast 421 484 33,000  Level Miami Center
Thu 02:22:56 PM 27.5319 -78.9317 North 413 475 33,000  Level Miami Center
Thu 02:23:56 PM 27.6450 -78.9150 North 416 479 33,000  Level Miami Center
Thu 02:24:56 PM 27.7475 -78.9028 North 416 479 33,000  Level Miami Center
Thu 02:25:56 PM 27.8750 -78.8839 North 411 473 33,000  Level Miami Center
Thu 02:26:56 PM 27.9775 -78.8717 North 411 473 33,000  Level Miami Center
Thu 02:27:56 PM 28.0925 -78.8547 North 416 479 33,000  Level Miami Center
Thu 02:28:56 PM 28.2078 -78.8381 North 409 471 33,000  Level Miami Center
Thu 02:29:56 PM 28.3206 -78.8233 North 409 471 33,000  Level Miami Center
Thu 02:30:56 PM 28.4356 -78.8067 North 409 471 33,000  Level Miami Center
Thu 02:31:56 PM 28.5528 -78.7919 North 409 471 33,000  Level Miami Center
Thu 02:32:56 PM 28.6656 -78.7775 North 409 471 33,000  Level Miami Center
Thu 02:33:56 PM 28.7786 -78.7606 North 409 471 33,000  Level Miami Center
Thu 02:34:56 PM 28.8936 -78.7433 North 409 471 33,000  Level Miami Center
Thu 02:35:56 PM 29.0022 -78.7264 North 409 471 33,000  Level Miami Center
Thu 02:36:56 PM 29.1150 -78.7092 North 409 471 33,000  Level Miami Center
Thu 02:38:40 PM 29.3222 -78.6747 North 419 482 33,000  Level Jacksonville Center
Thu 02:39:40 PM 29.4219 -78.6608 North 414 476 33,000  Level Jacksonville Center
Thu 02:40:40 PM 29.5383 -78.6439 North 414 476 33,000  Level Jacksonville Center
Thu 02:41:40 PM 29.6589 -78.6292 North 414 476 33,000  Level Jacksonville Center
Thu 02:42:40 PM 29.7708 -78.6122 North 419 482 33,000  Level Jacksonville Center
Thu 02:43:40 PM 29.8872 -78.5953 North 418 481 33,000  Level Jacksonville Center
Thu 02:44:40 PM 29.9994 -78.5758 North 421 484 33,000  Level Jacksonville Center
Thu 02:45:40 PM 30.1200 -78.5681 North 421 484 33,000  Level Jacksonville Center
Thu 02:46:40 PM 30.2361 -78.5461 North 410 472 33,000  Level Jacksonville Center
Thu 02:47:40 PM 30.3567 -78.5286 North 406 467 33,000  Level Jacksonville Center
Thu 02:48:40 PM 30.4731 -78.5136 North 418 481 33,000  Level Jacksonville Center
Thu 02:49:40 PM 30.5956 -78.4933 North 425 489 33,000  Level Jacksonville Center
Thu 02:50:40 PM 30.7161 -78.4758 North 428 493 33,000  Level Jacksonville Center
Thu 02:51:40 PM 30.8322 -78.4558 North 420 483 33,000  Level Jacksonville Center
Thu 02:52:40 PM 30.9547 -78.4356 North 432 497 33,000  Level Jacksonville Center
Thu 02:53:40 PM 31.0606 -78.4161 North 431 496 33,000  Level Jacksonville Center
Thu 02:54:40 PM 31.1808 -78.3958 North 425 489 33,000  Level Jacksonville Center
Thu 02:55:40 PM 31.2969 -78.3781 North 425 489 33,000  Level Jacksonville Center
Thu 02:56:40 PM 31.4156 -78.3625 North 425 489 33,000  Level Jacksonville Center
Thu 02:57:40 PM 31.5378 -78.3369 10° North 425 489 33,000  Level Jacksonville Center
Thu 02:58:40 PM 31.6561 -78.3214 North 432 497 33,000  Level Jacksonville Center
Thu 02:59:40 PM 31.7764 -78.3008 North 432 497 33,000  Level Jacksonville Center
Thu 03:00:40 PM 31.9008 -78.2800 North 438 504 33,000  Level Jacksonville Center
Thu 03:01:40 PM 32.0192 -78.2594 North 438 504 33,000  Level Jacksonville Center
Thu 03:02:40 PM 32.1519 -78.2356 North 440 506 33,000  Level Jacksonville Center
Thu 03:03:40 PM 32.2742 -78.2144 North 440 506 33,000  Level Jacksonville Center
Thu 03:04:40 PM 32.3944 -78.1911 North 440 506 33,000  Level Jacksonville Center
Thu 03:05:40 PM 32.5128 -78.1728 North 435 501 33,000  Level Jacksonville Center
Thu 03:06:40 PM 32.6331 -78.1567 North 435 501 33,000  Level Jacksonville Center
Thu 03:07:40 PM 32.7533 -78.1356 North 435 501 33,000  Level Jacksonville Center
Thu 03:08:40 PM 32.8758 -78.1142 North 435 501 33,000  Level Jacksonville Center
Thu 03:09:40 PM 32.9981 -78.0953 North 435 501 33,000  Level Jacksonville Center
Thu 03:10:40 PM 33.1186 -78.0764 North 445 512 33,000  Level Jacksonville Center
Thu 03:11:40 PM 33.2411 -78.0600 North 440 506 33,000  Level Jacksonville Center
Thu 03:13:15 PM 33.4336 -78.0278 North 467 537 33,000  Level Washington Center
Thu 03:14:15 PM 33.5569 -78.0089 North 449 517 33,000  Level Washington Center
Thu 03:15:15 PM 33.6744 -77.9872 North 442 509 33,000  Level Washington Center
Thu 03:16:15 PM 33.7956 -77.9683 North 437 503 33,000  Level Washington Center
Thu 03:17:15 PM 33.8919 -77.9536 North 437 503 33,000  Level Washington Center
Thu 03:18:15 PM 34.0258 -77.9297 North 437 503 33,000  Level Washington Center
Thu 03:19:15 PM 34.1472 -77.9106 North 437 503 33,000  Level Washington Center
Thu 03:20:15 PM 34.2686 -77.8889 North 437 503 33,000  Level Washington Center
Thu 03:21:15 PM 34.3942 -77.8772 North 442 509 33,000  Level Washington Center
Thu 03:22:15 PM 34.5153 -77.8731 North 442 509 33,000  Level Washington Center
Thu 03:23:15 PM 34.6361 -77.8739 360° North 442 509 33,000  Level Washington Center
Thu 03:24:15 PM 34.7572 -77.8697 North 442 509 33,000  Level Washington Center
Thu 03:25:14 PM 34.8806 -77.8656 North 434 499 33,000  Level Washington Center
Thu 03:26:15 PM 34.9994 -77.8639 North 434 499 33,000  Level Washington Center
Thu 03:27:15 PM 35.1225 -77.8647 360° North 434 499 33,000  Level Washington Center
Thu 03:28:15 PM 35.2456 -77.8631 North 439 505 33,000  Level Washington Center
Thu 03:29:15 PM 35.3647 -77.8589 North 439 505 33,000  Level Washington Center
Thu 03:30:15 PM 35.4878 -77.8572 North 439 505 33,000  Level Washington Center
Thu 03:31:15 PM 35.6108 -77.8556 North 439 505 33,000  Level Washington Center
Thu 03:32:15 PM 35.7319 -77.8539 North 439 505 33,000  Level Washington Center
Thu 03:33:15 PM 35.8675 -77.8553 360° North 439 505 33,000  Level Washington Center
Thu 03:34:15 PM 35.9908 -77.8511 North 439 505 33,000  Level Washington Center
Thu 03:35:15 PM 36.1119 -77.8494 North 439 505 33,000  Level Washington Center
Thu 03:36:15 PM 36.2328 -77.8503 360° North 439 505 33,000  Level Washington Center
Thu 03:37:15 PM 36.3539 -77.8511 360° North 439 505 33,000  Level Washington Center
Thu 03:38:15 PM 36.4622 -77.8647 354° North 439 505 33,000  Level Washington Center
Thu 03:39:15 PM 36.5806 -77.8836 353° North 439 505 33,000  Level Washington Center
Thu 03:40:15 PM 36.6992 -77.9000 354° North 439 505 33,000  Level Washington Center
Thu 03:41:15 PM 36.8219 -77.9142 355° North 439 505 33,000  Level Washington Center
Thu 03:42:15 PM 36.9428 -77.9308 354° North 439 505 33,000  Level Washington Center
Thu 03:43:15 PM 37.0633 -77.9500 353° North 439 505 33,000  Level Washington Center
Thu 03:44:15 PM 37.1842 -77.9667 354° North 439 505 33,000  Level Washington Center
Thu 03:45:15 PM 37.3067 -77.9836 354° North 439 505 33,000  Level Washington Center
Thu 03:46:15 PM 37.4253 -78.0003 354° North 439 505 33,000  Level Washington Center
Thu 03:47:15 PM 37.5461 -78.0172 354° North 439 505 33,000  Level Washington Center
Thu 03:48:15 PM 37.6686 -78.0344 354° North 439 505 33,000  Level Washington Center
Thu 03:49:15 PM 37.7872 -78.0486 355° North 439 505 33,000  Level Washington Center
Thu 03:50:15 PM 37.9100 -78.0683 353° North 444 511 33,000  Level Washington Center
Thu 03:51:15 PM 38.0411 -78.0858 354° North 444 511 33,000  Level Washington Center
Thu 03:52:15 PM 38.1636 -78.1033 354° North 444 511 33,000  Level Washington Center
Thu 03:53:15 PM 38.2864 -78.1206 354° North 444 511 33,000  Level Washington Center
Thu 03:54:15 PM 38.4047 -78.1406 352° North 444 511 33,000  Level Washington Center
Thu 03:55:15 PM 38.5294 -78.1581 354° North 439 505 33,000  Level Washington Center
Thu 03:56:15 PM 38.6417 -78.1725 354° North 444 511 33,000  Level Washington Center
Thu 03:57:15 PM 38.7769 -78.1933 353° North 444 511 33,000 -200 Level Washington Center
Thu 03:58:15 PM 38.8975 -78.2108 354° North 438 504 32,600 -700 Descending Washington Center
Thu 03:59:15 PM 39.0181 -78.2233 355° North 444 511 31,600 -800 Descending Washington Center
Thu 04:00:15 PM 39.1428 -78.2358 356° North 444 511 31,000 -300 Descending Washington Center
Thu 04:01:15 PM 39.2633 -78.2481 356° North 444 511 31,000  Level Washington Center
Thu 04:02:15 PM 39.3861 -78.2633 355° North 444 511 31,000  Level Washington Center
Thu 04:04:33 PM 39.6689 -78.2906 356° North 441 507 31,000  Level Cleveland Center
Thu 04:05:33 PM 39.7858 -78.3031 355° North 451 519 31,000  Level Cleveland Center
Thu 04:06:33 PM 39.9092 -78.3178 355° North 451 519 31,000  Level Cleveland Center
Thu 04:07:33 PM 40.0344 -78.3297 356° North 451 519 31,000  Level Cleveland Center
Thu 04:08:33 PM 40.1556 -78.3419 356° North 445 512 31,000  Level Cleveland Center
Thu 04:09:33 PM 40.2831 -78.3569 355° North 445 512 31,000  Level Cleveland Center
Thu 04:10:33 PM 40.4064 -78.3692 356° North 445 512 31,000  Level Cleveland Center
Thu 04:11:33 PM 40.5294 -78.3814 356° North 445 512 31,000 -250 Level Cleveland Center
Thu 04:12:33 PM 40.6550 -78.3964 355° North 445 512 30,500 -750 Descending Cleveland Center
Thu 04:13:33 PM 40.7781 -78.4086 356° North 445 512 29,500 -1,000 Descending Cleveland Center
Thu 04:14:33 PM 40.9181 -78.4233 355° North 445 512 28,500 -1,000 Descending Cleveland Center
Thu 04:15:33 PM 41.0311 -78.4361 355° North 450 518 27,500 -2,250 Descending Cleveland Center
Thu 04:16:33 PM 41.1625 -78.4483 356° North 439 505 24,000 -1,250 Descending Cleveland Center
Thu 04:17:33 PM 41.2669 -78.4614 355° North 423 487 25,000  Climbing Cleveland Center
Thu 04:18:33 PM 41.3881 -78.4742 355° North 418 481 24,000 -500 Descending Cleveland Center
Thu 04:19:33 PM 41.5031 -78.4869 355° North 407 468 24,000  Level Cleveland Center
Thu 04:20:33 PM 41.6139 -78.4972 356° North 402 463 24,000 -800 Level Cleveland Center
Thu 04:21:33 PM 41.7161 -78.5108 354° North 391 450 22,400 -1,700 Descending Cleveland Center
Thu 04:22:33 PM 41.8206 -78.5242 355° North 385 443 20,600 -1,750 Descending Cleveland Center
Thu 04:23:33 PM 41.9208 -78.5319 357° North 373 429 18,900 -1,700 Descending Cleveland Center
Thu 04:24:33 PM 42.0192 -78.5456 354° North 362 417 17,200 -1,750 Descending Cleveland Center
Thu 04:25:33 PM 42.1131 -78.5567 355° North 352 405 15,400 -1,900 Descending Cleveland Center
Thu 04:26:33 PM 42.2111 -78.5647 357° North 346 398 13,400 -1,700 Descending Cleveland Center
Thu 04:27:33 PM 42.2992 -78.5956 345° North 335 386 12,000 -1,200 Descending Cleveland Center
Thu 04:28:33 PM 42.3706 -78.6214 345° North 319 367 11,000 -500 Descending Cleveland Center
Thu 04:29:33 PM 42.4525 -78.6528 344° North 307 353 11,000 -600 Level Cleveland Center
Thu 04:30:33 PM 42.5283 -78.7067 332° Northwest 283 326 9,800 -1,400 Descending Cleveland Center
Thu 04:31:33 PM 42.5853 -78.7475 332° Northwest 257 296 8,200 -1,500 Descending Cleveland Center
Thu 04:32:33 PM 42.6464 -78.7881 334° Northwest 237 273 6,800 -1,200 Descending Cleveland Center
Thu 04:33:33 PM 42.6969 -78.8317 328° Northwest 237 273 5,800 -800 Descending Cleveland Center
Thu 04:34:33 PM 42.7417 -78.8842 319° Northwest 229 264 5,200 -700 Descending Cleveland Center
Thu 04:35:33 PM 42.7922 -78.9253 329° Northwest 201 231 4,400 -873 Descending Cleveland Center
Thu 04:37:18 PM 42.8500 -78.8333 49° Northeast 171 197 2,800 -836 Descending Buffalo TRACON
Thu 04:38:18 PM 42.8833 -78.8000 36° Northeast 117 135 2,100 -700 Descending Buffalo TRACON

Login

Don't have an account? Register now (free) for customized features, flight alerts, and more!